createdAt,value
2022-08-16T00:00:03.512Z,0.00
2022-08-16T00:02:31.617Z,0.00
2022-08-16T00:04:59.846Z,0.00
2022-08-16T00:07:29.166Z,0.00
2022-08-16T00:09:57.362Z,0.00
2022-08-16T00:12:24.569Z,0.00
2022-08-16T00:14:56.387Z,0.00
2022-08-16T00:17:24.848Z,0.00
2022-08-16T00:19:53.727Z,0.00
2022-08-16T00:22:25.134Z,0.00
2022-08-16T00:24:54.302Z,0.00
2022-08-16T00:27:22.388Z,0.00
2022-08-16T00:30:08.682Z,0.00
2022-08-16T00:32:38.457Z,0.03
2022-08-16T00:35:15.090Z,0.00
2022-08-16T00:37:58.574Z,0.00
2022-08-16T00:40:50.898Z,0.00
2022-08-16T00:43:42.564Z,0.00
2022-08-16T00:46:35.351Z,0.00
2022-08-16T00:51:31.611Z,0.00
2022-08-16T00:53:58.506Z,0.10
2022-08-16T00:56:57.573Z,0.00
2022-08-16T00:59:23.785Z,0.05
2022-08-16T01:01:51.811Z,0.05
2022-08-16T01:04:30.256Z,0.00
2022-08-16T01:07:01.106Z,0.03
2022-08-16T01:09:33.409Z,0.00
2022-08-16T01:12:03.517Z,0.00
2022-08-16T01:14:36.436Z,0.00
2022-08-16T01:17:04.415Z,0.00
2022-08-16T01:19:40.937Z,0.00
2022-08-16T01:22:48.221Z,0.10
2022-08-16T01:25:14.969Z,0.03
2022-08-16T01:27:58.578Z,0.00
2022-08-16T01:30:32.146Z,0.00
2022-08-16T01:33:14.424Z,0.10
2022-08-16T01:35:52.847Z,0.00
2022-08-16T01:38:28.926Z,0.00
2022-08-16T01:41:02.078Z,0.00
2022-08-16T01:43:31.584Z,0.00
2022-08-16T01:46:37.134Z,0.10
2022-08-16T01:48:48.474Z,0.00
2022-08-16T01:51:18.729Z,0.00
2022-08-16T01:53:54.722Z,0.00
2022-08-16T01:56:25.187Z,0.00
2022-08-16T01:58:54.960Z,0.00
2022-08-16T02:01:22.359Z,0.00
2022-08-16T02:03:50.536Z,0.10
2022-08-16T02:06:34.284Z,0.00
2022-08-16T02:09:06.097Z,0.00
2022-08-16T02:11:43.016Z,0.05
2022-08-16T02:14:18.574Z,0.05
2022-08-16T02:16:49.022Z,0.00
2022-08-16T02:19:18.317Z,0.00
2022-08-16T02:22:09.125Z,0.00
2022-08-16T02:24:42.337Z,0.10
2022-08-16T02:27:13.382Z,0.00
2022-08-16T02:29:41.421Z,0.00
2022-08-16T02:33:01.184Z,0.00
2022-08-16T02:34:57.327Z,0.00
2022-08-16T02:37:23.928Z,0.03
2022-08-16T02:40:11.828Z,0.08
2022-08-16T02:42:38.386Z,0.08
2022-08-16T02:45:06.446Z,0.00
2022-08-16T02:48:00.704Z,0.08
2022-08-16T02:50:54.118Z,0.00
2022-08-16T02:53:08.879Z,0.00
2022-08-16T02:55:41.321Z,0.00
2022-08-16T02:58:08.666Z,0.10
2022-08-16T03:00:36.033Z,0.00
2022-08-16T03:03:03.349Z,0.00
2022-08-16T03:05:31.761Z,0.00
2022-08-16T03:08:01.195Z,0.00
2022-08-16T03:10:33.488Z,0.10
2022-08-16T03:13:01.547Z,0.00
2022-08-16T03:15:30.203Z,0.00
2022-08-16T03:17:57.627Z,0.00
2022-08-16T03:20:32.545Z,0.00
2022-08-16T03:23:01.801Z,0.00
2022-08-16T03:25:40.995Z,0.00
2022-08-16T03:28:11.828Z,0.00
2022-08-16T03:30:38.922Z,0.00
2022-08-16T03:33:05.851Z,0.00
2022-08-16T03:35:36.902Z,0.00
2022-08-16T03:38:32.760Z,0.00
2022-08-16T03:40:57.727Z,0.00
2022-08-16T03:43:24.773Z,0.10
2022-08-16T03:46:11.938Z,0.10
2022-08-16T03:48:40.382Z,0.00
2022-08-16T03:51:12.305Z,0.00
2022-08-16T03:53:40.847Z,0.00
2022-08-16T03:56:19.950Z,0.00
2022-08-16T03:58:50.895Z,0.10
2022-08-16T04:01:18.594Z,0.10
2022-08-16T04:03:45.203Z,0.10
2022-08-16T04:06:12.718Z,0.00
2022-08-16T04:08:39.564Z,0.10
2022-08-16T04:11:06.595Z,0.00
2022-08-16T04:14:01.681Z,0.10
2022-08-16T04:16:26.768Z,0.00
2022-08-16T04:19:02.776Z,0.10
2022-08-16T04:21:47.295Z,0.00
2022-08-16T04:24:14.899Z,0.03
2022-08-16T04:26:46.008Z,0.10
2022-08-16T04:29:23.238Z,0.00
2022-08-16T04:31:55.571Z,0.00
2022-08-16T04:34:24.886Z,0.10
2022-08-16T04:36:53.312Z,0.10
2022-08-16T04:39:20.211Z,0.10
2022-08-16T04:41:56.703Z,0.10
2022-08-16T04:44:52.472Z,0.00
2022-08-16T04:47:21.473Z,0.10
2022-08-16T04:49:50.631Z,0.10
2022-08-16T04:52:34.815Z,0.10
2022-08-16T04:55:13.456Z,0.10
2022-08-16T04:57:42.974Z,0.00
2022-08-16T05:00:32.219Z,0.10
2022-08-16T05:03:08.530Z,0.08
2022-08-16T05:05:55.415Z,0.10
2022-08-16T05:08:28.800Z,0.10
2022-08-16T05:11:03.699Z,0.10
2022-08-16T05:13:40.262Z,0.10
2022-08-16T05:16:19.958Z,0.00
2022-08-16T05:18:47.643Z,0.10
2022-08-16T05:21:14.330Z,0.10
2022-08-16T05:23:40.985Z,0.00
2022-08-16T05:26:19.578Z,0.10
2022-08-16T05:28:55.227Z,0.10
2022-08-16T05:31:23.332Z,0.10
2022-08-16T05:33:53.522Z,0.00
2022-08-16T05:36:21.537Z,0.10
2022-08-16T05:38:49.134Z,0.10
2022-08-16T05:41:17.072Z,0.10
2022-08-16T05:43:46.884Z,0.10
2022-08-16T05:46:28.940Z,0.10
2022-08-16T05:49:05.884Z,0.00
2022-08-16T05:51:38.484Z,0.00
2022-08-16T05:54:11.141Z,0.10
2022-08-16T05:56:39.289Z,0.00
2022-08-16T05:59:07.973Z,0.10
2022-08-16T06:01:38.769Z,0.10
2022-08-16T06:04:13.470Z,0.10
2022-08-16T06:06:57.451Z,0.10
2022-08-16T06:09:42.799Z,0.10
2022-08-16T06:12:26.947Z,0.10
2022-08-16T06:14:59.105Z,0.10
2022-08-16T06:17:43.164Z,0.10
2022-08-16T06:20:14.365Z,0.10
2022-08-16T06:22:41.289Z,0.10
2022-08-16T06:25:12.917Z,0.10
2022-08-16T06:27:41.938Z,0.10
2022-08-16T06:30:23.872Z,0.10
2022-08-16T06:32:55.614Z,0.10
2022-08-16T06:35:22.400Z,0.08
2022-08-16T06:37:51.412Z,0.10
2022-08-16T06:40:19.343Z,0.10
2022-08-16T06:42:47.537Z,0.10
2022-08-16T06:45:15.420Z,0.10
2022-08-16T06:47:53.170Z,0.10
2022-08-16T06:50:29.285Z,0.03
2022-08-16T06:53:00.024Z,0.10
2022-08-16T06:55:34.128Z,0.10
2022-08-16T06:58:01.977Z,0.10
2022-08-16T07:00:35.641Z,0.10
2022-08-16T07:03:28.077Z,0.10
2022-08-16T07:05:54.161Z,0.10
2022-08-16T07:08:20.811Z,0.10
2022-08-16T07:10:47.636Z,0.10
2022-08-16T07:13:23.007Z,0.10
2022-08-16T07:16:01.847Z,0.10
2022-08-16T07:18:28.897Z,0.05
2022-08-16T07:21:01.753Z,0.10
2022-08-16T07:23:37.146Z,0.05
2022-08-16T07:26:08.726Z,0.10
2022-08-16T07:28:35.981Z,0.10
2022-08-16T07:31:03.348Z,0.10
2022-08-16T07:33:51.291Z,0.10
2022-08-16T07:36:22.147Z,0.10
2022-08-16T07:38:49.309Z,0.10
2022-08-16T07:41:17.385Z,0.10
2022-08-16T07:43:47.560Z,0.10
2022-08-16T07:46:39.192Z,0.10
2022-08-16T07:49:03.067Z,0.10
2022-08-16T07:51:36.933Z,0.10
2022-08-16T07:54:09.420Z,0.10
2022-08-16T07:56:37.714Z,0.10
2022-08-16T07:59:05.828Z,0.10
2022-08-16T08:01:33.498Z,0.10
2022-08-16T08:04:00.958Z,0.13
2022-08-16T08:06:30.447Z,0.40
2022-08-16T08:08:59.104Z,0.60
2022-08-16T08:11:28.700Z,0.30
2022-08-16T08:13:57.608Z,0.63
2022-08-16T08:16:31.188Z,0.40
2022-08-16T08:19:00.676Z,0.50
2022-08-16T08:22:01.199Z,0.57
2022-08-16T08:24:17.709Z,0.90
2022-08-16T08:26:44.547Z,0.90
2022-08-16T08:29:23.179Z,0.40
2022-08-16T08:32:04.459Z,0.30
2022-08-16T08:34:51.128Z,0.80
2022-08-16T08:37:17.694Z,0.30
2022-08-16T08:39:53.323Z,0.90
2022-08-16T08:42:26.646Z,0.70
2022-08-16T08:44:54.658Z,0.63
2022-08-16T08:47:21.357Z,0.80
2022-08-16T08:49:55.132Z,0.90
2022-08-16T08:52:34.827Z,0.80
2022-08-16T08:55:10.410Z,0.90
2022-08-16T08:57:40.620Z,0.90
2022-08-16T09:00:13.032Z,1.00
2022-08-16T09:02:44.457Z,1.10
2022-08-16T09:05:15.553Z,1.15
2022-08-16T09:08:00.250Z,1.20
2022-08-16T09:10:30.002Z,1.20
2022-08-16T09:12:57.839Z,1.30
2022-08-16T09:15:24.544Z,1.30
2022-08-16T09:17:54.624Z,1.20
2022-08-16T09:20:25.823Z,1.20
2022-08-16T09:22:53.062Z,1.23
2022-08-16T09:25:25.788Z,1.10
2022-08-16T09:27:57.574Z,1.20
2022-08-16T09:30:34.555Z,1.20
2022-08-16T09:33:09.657Z,1.10
2022-08-16T09:35:38.728Z,1.00
2022-08-16T09:38:08.294Z,0.80
2022-08-16T09:40:43.193Z,0.60
2022-08-16T09:43:44.512Z,0.70
2022-08-16T09:45:59.161Z,0.73
2022-08-16T09:48:44.434Z,0.80
2022-08-16T09:51:13.592Z,0.77
2022-08-16T09:53:42.061Z,0.90
2022-08-16T09:56:39.505Z,0.80
2022-08-16T09:59:20.969Z,0.90
2022-08-16T10:01:49.834Z,0.80
2022-08-16T10:04:31.565Z,0.50
2022-08-16T10:07:14.837Z,0.60
2022-08-16T10:09:54.040Z,0.52
2022-08-16T10:12:44.478Z,0.60
2022-08-16T10:15:18.055Z,0.70
2022-08-16T10:18:00.196Z,0.60
2022-08-16T10:20:34.675Z,0.60
2022-08-16T10:23:07.984Z,0.60
2022-08-16T10:27:19.332Z,0.50
2022-08-16T10:28:30.055Z,0.50
2022-08-16T10:31:00.740Z,0.40
2022-08-16T10:33:33.368Z,0.50
2022-08-16T10:36:03.995Z,0.20
2022-08-16T10:41:04.725Z,0.20
2022-08-16T10:43:31.492Z,0.20
2022-08-16T10:46:00.152Z,0.10
2022-08-16T10:48:28.872Z,0.10
2022-08-16T10:50:59.784Z,0.10
2022-08-16T10:53:32.834Z,0.10
2022-08-16T10:56:02.646Z,0.10
2022-08-16T10:58:34.134Z,0.10
2022-08-16T11:01:39.635Z,0.10
2022-08-16T11:03:49.244Z,0.10
2022-08-16T11:06:28.038Z,0.10
2022-08-16T11:14:30.268Z,0.10
2022-08-16T11:17:02.144Z,0.10
2022-08-16T11:19:30.449Z,0.10
2022-08-16T11:22:38.820Z,0.10
2022-08-16T11:24:44.927Z,0.10
2022-08-16T11:27:19.694Z,0.10
2022-08-16T11:29:52.902Z,0.10
2022-08-16T11:32:29.683Z,0.20
2022-08-16T11:35:10.780Z,0.10
2022-08-16T11:40:36.286Z,0.10
2022-08-16T11:43:04.160Z,0.20
2022-08-16T11:45:33.554Z,0.30
2022-08-16T11:48:03.010Z,0.20
2022-08-16T11:50:33.376Z,0.20
2022-08-16T11:53:05.560Z,0.10
2022-08-16T11:55:35.339Z,0.15
2022-08-16T11:58:05.429Z,0.10
2022-08-16T12:00:51.325Z,0.10
2022-08-16T12:03:24.970Z,0.10
2022-08-16T12:06:00.473Z,0.10
2022-08-16T12:08:27.529Z,0.10
2022-08-16T12:10:55.315Z,0.10
2022-08-16T12:13:27.440Z,0.20
2022-08-16T12:15:54.555Z,0.10
2022-08-16T12:18:21.543Z,0.10
2022-08-16T12:20:48.384Z,0.10
2022-08-16T12:23:15.326Z,0.10
2022-08-16T12:25:44.273Z,0.10
2022-08-16T12:28:11.166Z,0.10
2022-08-16T12:30:43.085Z,0.00
2022-08-16T12:33:12.049Z,0.10
2022-08-16T12:35:39.604Z,0.10
2022-08-16T12:38:10.353Z,0.10
2022-08-16T12:40:57.148Z,0.10
2022-08-16T12:43:25.374Z,0.10
2022-08-16T12:45:55.153Z,0.10
2022-08-16T12:48:44.427Z,0.10
2022-08-16T12:51:19.571Z,0.10
2022-08-16T12:53:47.728Z,0.10
2022-08-16T12:56:14.482Z,0.10
2022-08-16T12:58:48.710Z,0.10
2022-08-16T13:01:23.140Z,0.10
2022-08-16T13:03:59.087Z,0.10
2022-08-16T13:06:37.214Z,0.10
2022-08-16T13:09:20.227Z,0.13
2022-08-16T13:12:03.631Z,0.10
2022-08-16T13:14:41.507Z,0.20
2022-08-16T13:17:18.462Z,0.10
2022-08-16T13:22:35.239Z,0.10
2022-08-16T13:25:02.128Z,0.10
2022-08-16T13:27:34.952Z,0.10
2022-08-16T13:30:36.375Z,0.20
2022-08-16T13:33:01.992Z,0.10
2022-08-16T13:35:38.447Z,0.10
2022-08-16T13:38:10.224Z,0.10
2022-08-16T13:40:49.023Z,0.20
2022-08-16T13:43:19.603Z,0.20
2022-08-16T13:45:46.236Z,0.10
2022-08-16T13:48:24.921Z,0.20
2022-08-16T13:50:54.794Z,0.10
2022-08-16T13:53:24.299Z,0.10
2022-08-16T13:55:58.627Z,0.10
2022-08-16T13:58:35.659Z,0.20
2022-08-16T14:01:09.666Z,0.17
2022-08-16T14:03:37.537Z,0.20
2022-08-16T14:06:04.256Z,0.10
2022-08-16T14:08:30.846Z,0.10
2022-08-16T14:10:57.445Z,0.10
2022-08-16T14:13:24.550Z,0.10
2022-08-16T14:15:51.642Z,0.20
2022-08-16T14:18:20.327Z,0.20
2022-08-16T14:20:48.637Z,0.20
2022-08-16T14:23:23.714Z,0.10
2022-08-16T14:25:54.019Z,0.10
2022-08-16T14:28:23.471Z,0.10
2022-08-16T14:30:50.418Z,0.10
2022-08-16T14:33:18.698Z,0.20
2022-08-16T14:35:49.238Z,0.20
2022-08-16T14:38:23.655Z,0.20
2022-08-16T14:40:55.070Z,0.20
2022-08-16T14:43:24.116Z,0.20
2022-08-16T14:45:50.868Z,0.10
2022-08-16T14:48:25.909Z,0.20
2022-08-16T14:50:54.015Z,0.20
2022-08-16T14:53:20.966Z,0.10
2022-08-16T14:55:48.511Z,0.20
2022-08-16T14:58:19.525Z,0.10
2022-08-16T15:00:50.397Z,0.10
2022-08-16T15:03:18.902Z,0.10
2022-08-16T15:05:48.491Z,0.10
2022-08-16T15:08:17.137Z,0.10
2022-08-16T15:10:46.940Z,0.10
2022-08-16T15:13:15.093Z,0.10
2022-08-16T15:15:43.398Z,0.10
2022-08-16T15:18:13.843Z,0.10
2022-08-16T15:20:54.496Z,0.10
2022-08-16T15:23:21.075Z,0.10
2022-08-16T15:25:53.421Z,0.10
2022-08-16T15:28:31.750Z,0.10
2022-08-16T15:31:04.399Z,0.10
2022-08-16T15:33:42.084Z,0.10
2022-08-16T15:36:13.927Z,0.10
2022-08-16T15:39:02.610Z,0.10
2022-08-16T15:41:43.686Z,0.10
2022-08-16T15:44:21.286Z,0.20
2022-08-16T15:46:57.102Z,0.10
2022-08-16T15:49:34.406Z,0.10
2022-08-16T15:52:10.467Z,0.10
2022-08-16T15:54:52.763Z,0.10
2022-08-16T15:57:24.380Z,0.10
2022-08-16T15:59:52.764Z,0.10
2022-08-16T16:02:30.979Z,0.10
2022-08-16T16:05:01.750Z,0.10
2022-08-16T16:07:30.292Z,0.10
2022-08-16T16:09:59.224Z,0.10
2022-08-16T16:12:52.896Z,0.10
2022-08-16T16:15:17.364Z,0.10
2022-08-16T16:17:44.051Z,0.10
2022-08-16T16:20:19.395Z,0.10
2022-08-16T16:22:46.315Z,0.10
2022-08-16T16:25:15.953Z,0.10
2022-08-16T16:27:44.237Z,0.10
2022-08-16T16:30:33.185Z,0.10
2022-08-16T16:33:01.071Z,0.10
2022-08-16T16:35:32.568Z,0.10
2022-08-16T16:38:00.162Z,0.10
2022-08-16T16:40:32.132Z,0.10
2022-08-16T16:43:00.004Z,0.10
2022-08-16T16:45:33.318Z,0.10
2022-08-16T16:48:02.864Z,0.10
2022-08-16T16:50:44.665Z,0.10
2022-08-16T16:53:17.242Z,0.10
2022-08-16T16:55:51.563Z,0.10
2022-08-16T16:58:43.374Z,0.10
2022-08-16T17:01:20.932Z,0.10
2022-08-16T17:04:19.159Z,0.10
2022-08-16T17:06:53.468Z,0.03
2022-08-16T17:09:23.842Z,0.10
2022-08-16T17:11:54.936Z,0.10
2022-08-16T17:14:33.438Z,0.10
2022-08-16T17:17:04.198Z,0.10
2022-08-16T17:22:20.353Z,0.10
2022-08-16T17:24:50.581Z,0.10
2022-08-16T17:27:33.270Z,0.08
2022-08-16T17:32:48.438Z,0.10
2022-08-16T17:35:20.174Z,0.08
2022-08-16T17:37:54.158Z,0.00
2022-08-16T17:39:28.236Z,0.00
2022-08-16T17:40:40.801Z,0.10
2022-08-16T17:43:16.386Z,0.00
2022-08-16T17:45:43.665Z,0.10
2022-08-16T17:48:10.868Z,0.00
2022-08-16T17:50:38.020Z,0.00
2022-08-16T17:53:06.181Z,0.00
2022-08-16T17:55:36.575Z,0.00
2022-08-16T17:58:09.922Z,0.10
2022-08-16T18:00:52.137Z,0.00
2022-08-16T18:04:02.537Z,0.00
2022-08-16T18:06:13.437Z,0.10
2022-08-16T18:08:41.506Z,0.03
2022-08-16T18:11:09.707Z,0.00
2022-08-16T18:13:43.070Z,0.10
2022-08-16T18:16:11.246Z,0.03
2022-08-16T18:18:38.282Z,0.00
2022-08-16T18:21:23.801Z,0.00
2022-08-16T18:23:50.554Z,0.00
2022-08-16T18:26:17.229Z,0.00
2022-08-16T18:28:43.819Z,0.00
2022-08-16T18:31:10.427Z,0.10
2022-08-16T18:33:43.808Z,0.00
2022-08-16T18:36:20.084Z,0.00
2022-08-16T18:38:49.409Z,0.00
2022-08-16T18:41:16.616Z,0.00
2022-08-16T18:44:24.261Z,0.10
2022-08-16T18:46:29.750Z,0.10
2022-08-16T18:48:56.301Z,0.10
2022-08-16T18:51:25.223Z,0.00
2022-08-16T18:53:52.485Z,0.00
2022-08-16T18:56:19.657Z,0.00
2022-08-16T18:58:46.317Z,0.00
2022-08-16T19:01:13.172Z,0.00
2022-08-16T19:03:39.921Z,0.00
2022-08-16T19:06:13.631Z,0.00
2022-08-16T19:08:42.470Z,0.00
2022-08-16T19:11:14.075Z,0.00
2022-08-16T19:13:44.300Z,0.00
2022-08-16T19:16:12.120Z,0.00
2022-08-16T19:18:38.938Z,0.00
2022-08-16T19:21:06.409Z,0.10
2022-08-16T19:23:35.970Z,0.00
2022-08-16T19:26:10.901Z,0.10
2022-08-16T19:28:58.798Z,0.00
2022-08-16T19:31:32.751Z,0.00
2022-08-16T19:34:00.427Z,0.00
2022-08-16T19:36:38.025Z,0.00
2022-08-16T19:39:10.494Z,0.03
2022-08-16T19:41:39.623Z,0.00
2022-08-16T19:44:07.136Z,0.10
2022-08-16T19:46:34.475Z,0.00
2022-08-16T19:49:01.214Z,0.00
2022-08-16T19:51:27.821Z,0.00
2022-08-16T19:53:54.441Z,0.10
2022-08-16T19:56:23.127Z,0.00
2022-08-16T19:59:17.011Z,0.00
2022-08-16T20:01:41.959Z,0.00
2022-08-16T20:04:12.561Z,0.00
2022-08-16T20:06:39.930Z,0.00
2022-08-16T20:09:07.018Z,0.00
2022-08-16T20:11:35.123Z,0.10
2022-08-16T20:14:02.283Z,0.00
2022-08-16T20:16:28.972Z,0.00
2022-08-16T20:18:55.526Z,0.00
2022-08-16T20:21:22.377Z,0.10
2022-08-16T20:23:49.051Z,0.00
2022-08-16T20:26:15.910Z,0.00
2022-08-16T20:28:53.846Z,0.00
2022-08-16T20:31:25.055Z,0.00
2022-08-16T20:33:53.110Z,0.10
2022-08-16T20:36:19.740Z,0.10
2022-08-16T20:38:47.748Z,0.00
2022-08-16T20:41:16.321Z,0.00
2022-08-16T20:43:43.535Z,0.10
2022-08-16T20:46:12.537Z,0.03
2022-08-16T20:48:39.104Z,0.00
2022-08-16T20:51:06.863Z,0.00
2022-08-16T20:53:34.034Z,0.00
2022-08-16T20:56:00.774Z,0.00
2022-08-16T20:58:27.352Z,0.00
2022-08-16T21:00:53.964Z,0.00
2022-08-16T21:03:20.680Z,0.00
2022-08-16T21:05:47.305Z,0.00
2022-08-16T21:08:46.552Z,0.00
2022-08-16T21:11:02.719Z,0.00
2022-08-16T21:13:30.937Z,0.10
2022-08-16T21:15:59.462Z,0.10
2022-08-16T21:18:26.258Z,0.00
2022-08-16T21:20:53.655Z,0.00
2022-08-16T21:23:20.675Z,0.00
2022-08-16T21:25:58.274Z,0.00
2022-08-16T21:28:40.214Z,0.00
2022-08-16T21:31:13.705Z,0.00
2022-08-16T21:33:40.848Z,0.10
2022-08-16T21:36:07.875Z,0.00
2022-08-16T21:38:34.765Z,0.10
2022-08-16T21:41:03.388Z,0.00
2022-08-16T21:43:33.493Z,0.10
2022-08-16T21:46:05.755Z,0.00
2022-08-16T21:48:35.981Z,0.10
2022-08-16T21:51:12.646Z,0.10
2022-08-16T21:53:39.846Z,0.00
2022-08-16T21:56:07.164Z,0.00
2022-08-16T21:58:36.756Z,0.00
2022-08-16T22:01:03.805Z,0.00
2022-08-16T22:03:32.847Z,0.00
2022-08-16T22:06:12.745Z,0.00
2022-08-16T22:08:46.806Z,0.00
2022-08-16T22:11:22.230Z,0.00
2022-08-16T22:13:57.750Z,0.00
2022-08-16T22:16:39.782Z,0.00
2022-08-16T22:19:06.711Z,0.00
2022-08-16T22:21:34.371Z,0.08
2022-08-16T22:24:01.235Z,0.05
2022-08-16T22:26:31.738Z,0.00
2022-08-16T22:29:12.238Z,0.00
2022-08-16T22:31:40.540Z,0.00
2022-08-16T22:34:08.909Z,0.10
2022-08-16T22:36:36.100Z,0.10
2022-08-16T22:39:05.026Z,0.00
2022-08-16T22:41:33.286Z,0.00
2022-08-16T22:44:02.105Z,0.05
2022-08-16T22:46:28.912Z,0.05
2022-08-16T22:48:55.731Z,0.00
2022-08-16T22:51:24.695Z,0.00
2022-08-16T22:53:51.939Z,0.08
2022-08-16T22:56:19.781Z,0.00
2022-08-16T22:58:46.843Z,0.10
2022-08-16T23:01:14.790Z,0.10
2022-08-16T23:03:41.986Z,0.08
2022-08-16T23:06:11.972Z,0.00
2022-08-16T23:08:41.209Z,0.00
2022-08-16T23:11:13.929Z,0.10
2022-08-16T23:13:50.110Z,0.10
2022-08-16T23:16:30.850Z,0.00
2022-08-16T23:18:59.935Z,0.00
2022-08-16T23:21:26.638Z,0.00
2022-08-16T23:23:53.997Z,0.00
2022-08-16T23:26:44.065Z,0.00
2022-08-16T23:29:21.177Z,0.00
2022-08-16T23:31:50.512Z,0.00
2022-08-16T23:34:20.334Z,0.00
2022-08-16T23:36:46.998Z,0.10
2022-08-16T23:39:13.571Z,0.00
2022-08-16T23:41:40.439Z,0.00
2022-08-16T23:44:56.559Z,0.00
2022-08-16T23:46:53.588Z,0.03
2022-08-16T23:49:57.514Z,0.10
2022-08-16T23:52:10.644Z,0.00
2022-08-16T23:54:37.248Z,0.00
2022-08-16T23:57:04.352Z,0.00
2022-08-16T23:59:35.927Z,0.00
